sensor_id;sensor_type;location;lat;lon;timestamp;P1;durP1;ratioP1;P2;durP2;ratioP2
32038;SDS011;18549;42.286;22.688;2023-12-14T00:01:54;38.30;;;19.37;;
32038;SDS011;18549;42.286;22.688;2023-12-14T00:04:21;34.73;;;20.57;;
32038;SDS011;18549;42.286;22.688;2023-12-14T00:06:49;33.70;;;18.80;;
32038;SDS011;18549;42.286;22.688;2023-12-14T00:09:16;29.17;;;18.13;;
32038;SDS011;18549;42.286;22.688;2023-12-14T00:11:43;24.83;;;15.33;;
32038;SDS011;18549;42.286;22.688;2023-12-14T00:14:09;26.20;;;14.47;;
32038;SDS011;18549;42.286;22.688;2023-12-14T00:16:36;32.03;;;15.63;;
32038;SDS011;18549;42.286;22.688;2023-12-14T00:19:03;31.50;;;16.83;;
32038;SDS011;18549;42.286;22.688;2023-12-14T00:21:30;28.27;;;15.63;;
32038;SDS011;18549;42.286;22.688;2023-12-14T00:23:59;27.60;;;15.67;;
32038;SDS011;18549;42.286;22.688;2023-12-14T00:26:26;20.73;;;12.60;;
32038;SDS011;18549;42.286;22.688;2023-12-14T00:28:53;21.30;;;11.40;;
32038;SDS011;18549;42.286;22.688;2023-12-14T00:31:20;27.90;;;13.90;;
32038;SDS011;18549;42.286;22.688;2023-12-14T00:33:48;24.97;;;13.47;;
32038;SDS011;18549;42.286;22.688;2023-12-14T00:36:18;26.07;;;14.67;;
32038;SDS011;18549;42.286;22.688;2023-12-14T00:38:45;34.13;;;18.77;;
32038;SDS011;18549;42.286;22.688;2023-12-14T00:41:13;33.97;;;18.70;;
32038;SDS011;18549;42.286;22.688;2023-12-14T00:43:40;30.47;;;17.97;;
32038;SDS011;18549;42.286;22.688;2023-12-14T00:46:07;36.23;;;19.50;;
32038;SDS011;18549;42.286;22.688;2023-12-14T00:48:35;32.23;;;16.50;;
32038;SDS011;18549;42.286;22.688;2023-12-14T00:51:01;25.07;;;13.80;;
32038;SDS011;18549;42.286;22.688;2023-12-14T00:53:29;27.87;;;13.93;;
32038;SDS011;18549;42.286;22.688;2023-12-14T00:55:55;21.40;;;13.00;;
32038;SDS011;18549;42.286;22.688;2023-12-14T00:58:24;30.27;;;15.47;;
32038;SDS011;18549;42.286;22.688;2023-12-14T01:00:51;20.07;;;12.70;;
32038;SDS011;18549;42.286;22.688;2023-12-14T01:03:19;29.77;;;15.20;;
32038;SDS011;18549;42.286;22.688;2023-12-14T01:05:46;22.67;;;15.10;;
32038;SDS011;18549;42.286;22.688;2023-12-14T01:08:13;29.30;;;15.77;;
32038;SDS011;18549;42.286;22.688;2023-12-14T01:10:40;34.23;;;16.37;;
32038;SDS011;18549;42.286;22.688;2023-12-14T01:13:07;27.83;;;14.13;;
32038;SDS011;18549;42.286;22.688;2023-12-14T01:15:35;29.93;;;15.87;;
32038;SDS011;18549;42.286;22.688;2023-12-14T01:18:02;26.30;;;15.37;;
32038;SDS011;18549;42.286;22.688;2023-12-14T01:20:29;38.37;;;20.93;;
32038;SDS011;18549;42.286;22.688;2023-12-14T01:22:56;30.97;;;16.53;;
32038;SDS011;18549;42.286;22.688;2023-12-14T01:25:23;25.73;;;15.67;;
32038;SDS011;18549;42.286;22.688;2023-12-14T01:27:50;30.90;;;16.90;;
32038;SDS011;18549;42.286;22.688;2023-12-14T01:30:17;32.73;;;17.27;;
32038;SDS011;18549;42.286;22.688;2023-12-14T01:32:45;25.67;;;14.57;;
32038;SDS011;18549;42.286;22.688;2023-12-14T01:35:12;33.93;;;16.77;;
32038;SDS011;18549;42.286;22.688;2023-12-14T01:37:41;30.60;;;20.77;;
32038;SDS011;18549;42.286;22.688;2023-12-14T01:40:08;35.47;;;19.97;;
32038;SDS011;18549;42.286;22.688;2023-12-14T01:42:36;39.83;;;25.73;;
32038;SDS011;18549;42.286;22.688;2023-12-14T01:45:03;44.87;;;27.50;;
32038;SDS011;18549;42.286;22.688;2023-12-14T01:47:30;38.40;;;23.10;;
32038;SDS011;18549;42.286;22.688;2023-12-14T01:49:59;38.77;;;23.03;;
32038;SDS011;18549;42.286;22.688;2023-12-14T01:52:26;42.97;;;21.93;;
32038;SDS011;18549;42.286;22.688;2023-12-14T01:54:53;36.13;;;20.93;;
32038;SDS011;18549;42.286;22.688;2023-12-14T01:57:20;24.73;;;14.27;;
32038;SDS011;18549;42.286;22.688;2023-12-14T01:59:47;20.67;;;11.23;;
32038;SDS011;18549;42.286;22.688;2023-12-14T02:02:14;43.10;;;24.20;;
32038;SDS011;18549;42.286;22.688;2023-12-14T02:04:41;46.20;;;22.87;;
32038;SDS011;18549;42.286;22.688;2023-12-14T02:07:09;33.77;;;19.77;;
32038;SDS011;18549;42.286;22.688;2023-12-14T02:09:36;22.97;;;13.67;;
32038;SDS011;18549;42.286;22.688;2023-12-14T02:12:04;25.37;;;14.20;;
32038;SDS011;18549;42.286;22.688;2023-12-14T02:14:31;23.50;;;13.83;;
32038;SDS011;18549;42.286;22.688;2023-12-14T02:16:57;22.00;;;13.70;;
32038;SDS011;18549;42.286;22.688;2023-12-14T02:19:24;19.83;;;11.47;;
32038;SDS011;18549;42.286;22.688;2023-12-14T02:21:51;53.60;;;25.97;;
32038;SDS011;18549;42.286;22.688;2023-12-14T02:24:19;72.00;;;34.20;;
32038;SDS011;18549;42.286;22.688;2023-12-14T02:26:46;57.70;;;32.63;;
32038;SDS011;18549;42.286;22.688;2023-12-14T02:29:13;50.83;;;26.53;;
32038;SDS011;18549;42.286;22.688;2023-12-14T02:31:40;38.63;;;22.27;;
32038;SDS011;18549;42.286;22.688;2023-12-14T02:34:07;34.93;;;19.77;;
32038;SDS011;18549;42.286;22.688;2023-12-14T02:36:33;28.70;;;17.17;;
32038;SDS011;18549;42.286;22.688;2023-12-14T02:39:00;21.40;;;13.50;;
32038;SDS011;18549;42.286;22.688;2023-12-14T02:41:29;29.90;;;15.60;;
32038;SDS011;18549;42.286;22.688;2023-12-14T02:43:55;24.97;;;15.20;;
32038;SDS011;18549;42.286;22.688;2023-12-14T02:46:22;28.00;;;15.93;;
32038;SDS011;18549;42.286;22.688;2023-12-14T02:48:49;27.40;;;15.77;;
32038;SDS011;18549;42.286;22.688;2023-12-14T02:51:16;34.23;;;17.83;;
32038;SDS011;18549;42.286;22.688;2023-12-14T02:53:43;31.00;;;16.47;;
32038;SDS011;18549;42.286;22.688;2023-12-14T02:56:10;33.77;;;17.47;;
32038;SDS011;18549;42.286;22.688;2023-12-14T02:58:38;26.67;;;16.60;;
32038;SDS011;18549;42.286;22.688;2023-12-14T03:01:05;33.13;;;17.47;;
32038;SDS011;18549;42.286;22.688;2023-12-14T03:03:32;27.10;;;16.60;;
32038;SDS011;18549;42.286;22.688;2023-12-14T03:05:59;25.43;;;15.30;;
32038;SDS011;18549;42.286;22.688;2023-12-14T03:08:26;24.73;;;12.97;;
32038;SDS011;18549;42.286;22.688;2023-12-14T03:10:53;33.70;;;16.83;;
32038;SDS011;18549;42.286;22.688;2023-12-14T03:13:20;25.50;;;15.00;;
32038;SDS011;18549;42.286;22.688;2023-12-14T03:15:48;27.40;;;14.37;;
32038;SDS011;18549;42.286;22.688;2023-12-14T03:18:15;27.50;;;15.83;;
32038;SDS011;18549;42.286;22.688;2023-12-14T03:20:42;27.57;;;14.37;;
32038;SDS011;18549;42.286;22.688;2023-12-14T03:23:09;20.40;;;13.03;;
32038;SDS011;18549;42.286;22.688;2023-12-14T03:25:36;19.57;;;11.57;;
32038;SDS011;18549;42.286;22.688;2023-12-14T03:28:03;14.90;;;10.67;;
32038;SDS011;18549;42.286;22.688;2023-12-14T03:30:30;20.53;;;11.57;;
32038;SDS011;18549;42.286;22.688;2023-12-14T03:32:58;20.13;;;12.60;;
32038;SDS011;18549;42.286;22.688;2023-12-14T03:35:25;22.27;;;11.43;;
32038;SDS011;18549;42.286;22.688;2023-12-14T03:37:52;26.10;;;12.97;;
32038;SDS011;18549;42.286;22.688;2023-12-14T03:40:19;24.10;;;15.27;;
32038;SDS011;18549;42.286;22.688;2023-12-14T03:42:46;33.33;;;19.93;;
32038;SDS011;18549;42.286;22.688;2023-12-14T03:45:13;33.17;;;18.13;;
32038;SDS011;18549;42.286;22.688;2023-12-14T03:47:40;24.87;;;15.27;;
32038;SDS011;18549;42.286;22.688;2023-12-14T03:50:10;29.63;;;14.87;;
32038;SDS011;18549;42.286;22.688;2023-12-14T03:52:37;24.47;;;14.93;;
32038;SDS011;18549;42.286;22.688;2023-12-14T03:55:05;27.83;;;16.20;;
32038;SDS011;18549;42.286;22.688;2023-12-14T03:57:32;25.97;;;15.93;;
32038;SDS011;18549;42.286;22.688;2023-12-14T03:59:59;30.23;;;15.20;;
32038;SDS011;18549;42.286;22.688;2023-12-14T04:02:26;24.53;;;14.77;;
32038;SDS011;18549;42.286;22.688;2023-12-14T04:04:53;28.43;;;15.73;;
32038;SDS011;18549;42.286;22.688;2023-12-14T04:07:22;27.80;;;16.90;;
32038;SDS011;18549;42.286;22.688;2023-12-14T04:09:49;26.77;;;16.77;;
32038;SDS011;18549;42.286;22.688;2023-12-14T04:12:16;20.50;;;11.77;;
32038;SDS011;18549;42.286;22.688;2023-12-14T04:14:42;16.00;;;11.47;;
32038;SDS011;18549;42.286;22.688;2023-12-14T04:17:10;17.63;;;10.90;;
32038;SDS011;18549;42.286;22.688;2023-12-14T04:19:37;15.37;;;9.87;;
32038;SDS011;18549;42.286;22.688;2023-12-14T04:22:04;15.80;;;9.47;;
32038;SDS011;18549;42.286;22.688;2023-12-14T04:24:33;13.90;;;9.73;;
32038;SDS011;18549;42.286;22.688;2023-12-14T04:27:00;13.03;;;8.73;;
32038;SDS011;18549;42.286;22.688;2023-12-14T04:29:27;15.50;;;9.07;;
32038;SDS011;18549;42.286;22.688;2023-12-14T04:31:53;11.87;;;8.93;;
32038;SDS011;18549;42.286;22.688;2023-12-14T04:34:20;13.70;;;8.93;;
32038;SDS011;18549;42.286;22.688;2023-12-14T04:36:47;14.37;;;9.37;;
32038;SDS011;18549;42.286;22.688;2023-12-14T04:39:15;14.00;;;9.77;;
32038;SDS011;18549;42.286;22.688;2023-12-14T04:41:43;21.03;;;12.47;;
32038;SDS011;18549;42.286;22.688;2023-12-14T04:44:10;36.63;;;18.43;;
32038;SDS011;18549;42.286;22.688;2023-12-14T04:46:37;35.23;;;18.93;;
32038;SDS011;18549;42.286;22.688;2023-12-14T04:49:04;27.43;;;17.13;;
32038;SDS011;18549;42.286;22.688;2023-12-14T04:51:31;19.83;;;12.43;;
32038;SDS011;18549;42.286;22.688;2023-12-14T04:53:58;21.43;;;14.03;;
32038;SDS011;18549;42.286;22.688;2023-12-14T04:56:25;29.57;;;16.30;;
32038;SDS011;18549;42.286;22.688;2023-12-14T04:58:53;22.67;;;14.40;;
32038;SDS011;18549;42.286;22.688;2023-12-14T05:01:20;27.37;;;16.07;;
32038;SDS011;18549;42.286;22.688;2023-12-14T05:03:47;28.37;;;15.83;;
32038;SDS011;18549;42.286;22.688;2023-12-14T05:06:14;24.93;;;16.17;;
32038;SDS011;18549;42.286;22.688;2023-12-14T05:08:41;31.33;;;18.17;;
32038;SDS011;18549;42.286;22.688;2023-12-14T05:11:08;27.87;;;17.23;;
32038;SDS011;18549;42.286;22.688;2023-12-14T05:13:35;25.00;;;14.83;;
32038;SDS011;18549;42.286;22.688;2023-12-14T05:16:03;28.60;;;15.23;;
32038;SDS011;18549;42.286;22.688;2023-12-14T05:18:30;18.97;;;13.33;;
32038;SDS011;18549;42.286;22.688;2023-12-14T05:20:57;23.07;;;15.07;;
32038;SDS011;18549;42.286;22.688;2023-12-14T05:23:25;20.90;;;12.57;;
32038;SDS011;18549;42.286;22.688;2023-12-14T05:25:52;18.03;;;11.27;;
32038;SDS011;18549;42.286;22.688;2023-12-14T05:28:19;24.33;;;15.30;;
32038;SDS011;18549;42.286;22.688;2023-12-14T05:30:46;23.67;;;14.63;;
32038;SDS011;18549;42.286;22.688;2023-12-14T05:33:14;20.87;;;13.17;;
32038;SDS011;18549;42.286;22.688;2023-12-14T05:35:41;19.77;;;13.53;;
32038;SDS011;18549;42.286;22.688;2023-12-14T05:38:08;24.37;;;16.07;;
32038;SDS011;18549;42.286;22.688;2023-12-14T05:40:35;24.07;;;14.63;;
32038;SDS011;18549;42.286;22.688;2023-12-14T05:43:02;30.33;;;17.70;;
32038;SDS011;18549;42.286;22.688;2023-12-14T05:45:29;25.57;;;16.73;;
32038;SDS011;18549;42.286;22.688;2023-12-14T05:47:56;23.53;;;15.60;;
32038;SDS011;18549;42.286;22.688;2023-12-14T05:50:24;24.30;;;16.10;;
32038;SDS011;18549;42.286;22.688;2023-12-14T05:52:51;34.47;;;21.27;;
32038;SDS011;18549;42.286;22.688;2023-12-14T05:55:18;33.17;;;20.83;;
32038;SDS011;18549;42.286;22.688;2023-12-14T05:57:46;40.10;;;24.17;;
32038;SDS011;18549;42.286;22.688;2023-12-14T06:00:14;44.97;;;29.13;;
32038;SDS011;18549;42.286;22.688;2023-12-14T06:02:42;52.77;;;31.67;;
32038;SDS011;18549;42.286;22.688;2023-12-14T06:05:09;47.30;;;33.70;;
32038;SDS011;18549;42.286;22.688;2023-12-14T06:07:37;32.87;;;24.77;;
32038;SDS011;18549;42.286;22.688;2023-12-14T06:10:04;28.07;;;20.13;;
32038;SDS011;18549;42.286;22.688;2023-12-14T06:12:32;30.77;;;19.73;;
32038;SDS011;18549;42.286;22.688;2023-12-14T06:14:59;32.30;;;21.13;;
32038;SDS011;18549;42.286;22.688;2023-12-14T06:17:26;23.20;;;14.90;;
32038;SDS011;18549;42.286;22.688;2023-12-14T06:19:53;26.93;;;19.30;;
32038;SDS011;18549;42.286;22.688;2023-12-14T06:22:20;28.73;;;17.33;;
32038;SDS011;18549;42.286;22.688;2023-12-14T06:24:48;38.60;;;21.43;;
32038;SDS011;18549;42.286;22.688;2023-12-14T06:27:15;28.90;;;21.00;;
32038;SDS011;18549;42.286;22.688;2023-12-14T06:29:42;37.67;;;25.40;;
32038;SDS011;18549;42.286;22.688;2023-12-14T06:32:09;35.53;;;21.53;;
32038;SDS011;18549;42.286;22.688;2023-12-14T06:34:36;46.60;;;27.57;;
32038;SDS011;18549;42.286;22.688;2023-12-14T06:37:03;36.97;;;24.80;;
32038;SDS011;18549;42.286;22.688;2023-12-14T06:39:30;32.63;;;23.30;;
32038;SDS011;18549;42.286;22.688;2023-12-14T06:41:58;34.23;;;21.67;;
32038;SDS011;18549;42.286;22.688;2023-12-14T06:44:25;52.00;;;29.57;;
32038;SDS011;18549;42.286;22.688;2023-12-14T06:46:53;35.97;;;23.30;;
32038;SDS011;18549;42.286;22.688;2023-12-14T06:49:20;69.60;;;39.33;;
32038;SDS011;18549;42.286;22.688;2023-12-14T06:51:47;71.27;;;40.70;;
32038;SDS011;18549;42.286;22.688;2023-12-14T06:54:14;70.50;;;41.80;;
32038;SDS011;18549;42.286;22.688;2023-12-14T06:56:41;77.87;;;44.37;;
32038;SDS011;18549;42.286;22.688;2023-12-14T06:59:09;74.57;;;44.80;;
32038;SDS011;18549;42.286;22.688;2023-12-14T07:01:36;121.50;;;65.43;;
32038;SDS011;18549;42.286;22.688;2023-12-14T07:04:03;98.67;;;56.23;;
32038;SDS011;18549;42.286;22.688;2023-12-14T07:06:30;96.00;;;50.27;;
32038;SDS011;18549;42.286;22.688;2023-12-14T07:08:57;63.07;;;42.93;;
32038;SDS011;18549;42.286;22.688;2023-12-14T07:11:24;56.87;;;36.47;;
32038;SDS011;18549;42.286;22.688;2023-12-14T07:13:51;62.93;;;42.53;;
32038;SDS011;18549;42.286;22.688;2023-12-14T07:16:19;64.57;;;39.50;;
32038;SDS011;18549;42.286;22.688;2023-12-14T07:18:46;51.50;;;30.43;;
32038;SDS011;18549;42.286;22.688;2023-12-14T07:21:13;70.37;;;42.53;;
32038;SDS011;18549;42.286;22.688;2023-12-14T07:23:40;80.70;;;46.67;;
32038;SDS011;18549;42.286;22.688;2023-12-14T07:26:06;102.47;;;51.33;;
32038;SDS011;18549;42.286;22.688;2023-12-14T07:28:34;100.87;;;63.50;;
32038;SDS011;18549;42.286;22.688;2023-12-14T07:31:01;115.43;;;71.70;;
32038;SDS011;18549;42.286;22.688;2023-12-14T07:33:29;144.17;;;80.77;;
32038;SDS011;18549;42.286;22.688;2023-12-14T07:35:56;143.73;;;84.67;;
32038;SDS011;18549;42.286;22.688;2023-12-14T07:38:23;178.50;;;92.33;;
32038;SDS011;18549;42.286;22.688;2023-12-14T07:40:50;160.63;;;84.57;;
32038;SDS011;18549;42.286;22.688;2023-12-14T07:43:17;137.03;;;82.73;;
32038;SDS011;18549;42.286;22.688;2023-12-14T07:45:44;156.30;;;88.47;;
32038;SDS011;18549;42.286;22.688;2023-12-14T07:48:11;156.50;;;89.77;;
32038;SDS011;18549;42.286;22.688;2023-12-14T07:50:39;186.03;;;100.00;;
32038;SDS011;18549;42.286;22.688;2023-12-14T07:53:06;188.93;;;101.33;;
32038;SDS011;18549;42.286;22.688;2023-12-14T07:55:33;179.27;;;99.67;;
32038;SDS011;18549;42.286;22.688;2023-12-14T07:58:00;171.33;;;99.93;;
32038;SDS011;18549;42.286;22.688;2023-12-14T08:00:27;160.10;;;93.63;;
32038;SDS011;18549;42.286;22.688;2023-12-14T08:02:54;150.87;;;96.30;;
32038;SDS011;18549;42.286;22.688;2023-12-14T08:05:21;149.43;;;93.47;;
32038;SDS011;18549;42.286;22.688;2023-12-14T08:07:51;170.10;;;99.30;;
32038;SDS011;18549;42.286;22.688;2023-12-14T08:10:19;145.87;;;93.77;;
32038;SDS011;18549;42.286;22.688;2023-12-14T08:12:46;157.33;;;102.20;;
32038;SDS011;18549;42.286;22.688;2023-12-14T08:15:13;184.57;;;108.90;;
32038;SDS011;18549;42.286;22.688;2023-12-14T08:17:41;164.57;;;98.83;;
32038;SDS011;18549;42.286;22.688;2023-12-14T08:20:09;126.80;;;80.13;;
32038;SDS011;18549;42.286;22.688;2023-12-14T08:22:37;110.83;;;71.73;;
32038;SDS011;18549;42.286;22.688;2023-12-14T08:25:10;154.70;;;92.30;;
32038;SDS011;18549;42.286;22.688;2023-12-14T08:27:39;167.97;;;96.83;;
32038;SDS011;18549;42.286;22.688;2023-12-14T08:30:06;147.40;;;87.17;;
32038;SDS011;18549;42.286;22.688;2023-12-14T08:32:34;126.57;;;64.10;;
32038;SDS011;18549;42.286;22.688;2023-12-14T08:35:01;123.80;;;65.03;;
32038;SDS011;18549;42.286;22.688;2023-12-14T08:37:28;112.87;;;66.30;;
32038;SDS011;18549;42.286;22.688;2023-12-14T08:39:55;115.27;;;67.07;;
32038;SDS011;18549;42.286;22.688;2023-12-14T08:42:24;118.00;;;64.37;;
32038;SDS011;18549;42.286;22.688;2023-12-14T08:44:51;106.03;;;63.17;;
32038;SDS011;18549;42.286;22.688;2023-12-14T08:47:18;97.47;;;57.40;;
32038;SDS011;18549;42.286;22.688;2023-12-14T08:49:48;100.53;;;59.93;;
32038;SDS011;18549;42.286;22.688;2023-12-14T08:52:15;92.27;;;59.17;;
32038;SDS011;18549;42.286;22.688;2023-12-14T08:54:43;92.83;;;56.30;;
32038;SDS011;18549;42.286;22.688;2023-12-14T08:57:10;78.03;;;50.97;;
32038;SDS011;18549;42.286;22.688;2023-12-14T08:59:38;86.97;;;51.03;;
32038;SDS011;18549;42.286;22.688;2023-12-14T09:02:05;83.63;;;47.73;;
32038;SDS011;18549;42.286;22.688;2023-12-14T09:04:32;81.43;;;48.63;;
32038;SDS011;18549;42.286;22.688;2023-12-14T09:07:01;98.93;;;57.73;;
32038;SDS011;18549;42.286;22.688;2023-12-14T09:09:29;91.10;;;54.43;;
32038;SDS011;18549;42.286;22.688;2023-12-14T09:11:57;112.13;;;53.53;;
32038;SDS011;18549;42.286;22.688;2023-12-14T09:14:24;102.30;;;54.27;;
32038;SDS011;18549;42.286;22.688;2023-12-14T09:16:52;92.93;;;55.70;;
32038;SDS011;18549;42.286;22.688;2023-12-14T09:19:19;100.60;;;56.73;;
32038;SDS011;18549;42.286;22.688;2023-12-14T09:21:46;93.20;;;58.33;;
32038;SDS011;18549;42.286;22.688;2023-12-14T09:24:13;105.03;;;66.17;;
32038;SDS011;18549;42.286;22.688;2023-12-14T09:26:40;108.93;;;66.70;;
32038;SDS011;18549;42.286;22.688;2023-12-14T09:29:07;114.23;;;67.30;;
32038;SDS011;18549;42.286;22.688;2023-12-14T09:31:34;121.30;;;70.23;;
32038;SDS011;18549;42.286;22.688;2023-12-14T09:34:02;109.33;;;65.83;;
32038;SDS011;18549;42.286;22.688;2023-12-14T09:36:29;103.47;;;62.20;;
32038;SDS011;18549;42.286;22.688;2023-12-14T09:38:56;117.47;;;67.53;;
32038;SDS011;18549;42.286;22.688;2023-12-14T09:41:23;107.20;;;66.13;;
32038;SDS011;18549;42.286;22.688;2023-12-14T09:43:50;92.90;;;59.13;;
32038;SDS011;18549;42.286;22.688;2023-12-14T09:46:18;87.50;;;56.17;;
32038;SDS011;18549;42.286;22.688;2023-12-14T09:48:47;90.70;;;55.83;;
32038;SDS011;18549;42.286;22.688;2023-12-14T09:51:17;92.43;;;57.93;;
32038;SDS011;18549;42.286;22.688;2023-12-14T09:53:44;89.27;;;56.53;;
32038;SDS011;18549;42.286;22.688;2023-12-14T09:56:11;99.50;;;58.47;;
32038;SDS011;18549;42.286;22.688;2023-12-14T09:58:38;95.33;;;57.07;;
32038;SDS011;18549;42.286;22.688;2023-12-14T10:03:47;85.57;;;52.63;;
32038;SDS011;18549;42.286;22.688;2023-12-14T10:06:14;94.13;;;55.93;;
32038;SDS011;18549;42.286;22.688;2023-12-14T10:08:42;83.40;;;51.53;;
32038;SDS011;18549;42.286;22.688;2023-12-14T10:11:21;83.60;;;46.63;;
32038;SDS011;18549;42.286;22.688;2023-12-14T10:13:48;84.50;;;50.03;;
32038;SDS011;18549;42.286;22.688;2023-12-14T10:16:26;99.97;;;57.13;;
32038;SDS011;18549;42.286;22.688;2023-12-14T10:18:55;98.40;;;54.97;;
32038;SDS011;18549;42.286;22.688;2023-12-14T10:21:22;81.17;;;48.83;;
32038;SDS011;18549;42.286;22.688;2023-12-14T10:23:50;77.47;;;41.17;;
32038;SDS011;18549;42.286;22.688;2023-12-14T10:26:17;61.53;;;37.30;;
32038;SDS011;18549;42.286;22.688;2023-12-14T10:28:44;62.77;;;40.30;;
32038;SDS011;18549;42.286;22.688;2023-12-14T10:31:11;73.97;;;43.67;;
32038;SDS011;18549;42.286;22.688;2023-12-14T10:33:38;78.70;;;42.67;;
32038;SDS011;18549;42.286;22.688;2023-12-14T10:36:05;75.97;;;42.77;;
32038;SDS011;18549;42.286;22.688;2023-12-14T10:38:34;71.17;;;39.50;;
32038;SDS011;18549;42.286;22.688;2023-12-14T10:41:06;72.27;;;46.23;;
32038;SDS011;18549;42.286;22.688;2023-12-14T10:43:35;72.00;;;42.13;;
32038;SDS011;18549;42.286;22.688;2023-12-14T10:46:04;73.93;;;42.37;;
32038;SDS011;18549;42.286;22.688;2023-12-14T10:48:34;69.43;;;41.93;;
32038;SDS011;18549;42.286;22.688;2023-12-14T10:51:02;60.67;;;38.00;;
32038;SDS011;18549;42.286;22.688;2023-12-14T10:53:30;65.80;;;38.80;;
32038;SDS011;18549;42.286;22.688;2023-12-14T10:55:58;62.60;;;32.87;;
32038;SDS011;18549;42.286;22.688;2023-12-14T10:58:27;111.00;;;70.60;;
32038;SDS011;18549;42.286;22.688;2023-12-14T11:01:13;76.17;;;46.07;;
32038;SDS011;18549;42.286;22.688;2023-12-14T11:03:40;76.97;;;41.97;;
32038;SDS011;18549;42.286;22.688;2023-12-14T11:08:58;69.77;;;41.77;;
32038;SDS011;18549;42.286;22.688;2023-12-14T11:11:30;64.20;;;39.00;;
32038;SDS011;18549;42.286;22.688;2023-12-14T11:14:05;74.07;;;42.80;;
32038;SDS011;18549;42.286;22.688;2023-12-14T11:16:34;77.47;;;44.27;;
32038;SDS011;18549;42.286;22.688;2023-12-14T11:22:10;79.90;;;44.80;;
32038;SDS011;18549;42.286;22.688;2023-12-14T11:24:41;84.63;;;48.07;;
32038;SDS011;18549;42.286;22.688;2023-12-14T11:27:09;101.87;;;52.23;;
32038;SDS011;18549;42.286;22.688;2023-12-14T11:29:37;85.87;;;51.43;;
32038;SDS011;18549;42.286;22.688;2023-12-14T11:32:06;86.63;;;56.47;;
32038;SDS011;18549;42.286;22.688;2023-12-14T11:34:34;85.63;;;55.73;;
32038;SDS011;18549;42.286;22.688;2023-12-14T11:37:03;109.47;;;60.97;;
32038;SDS011;18549;42.286;22.688;2023-12-14T11:39:31;129.43;;;80.17;;
32038;SDS011;18549;42.286;22.688;2023-12-14T11:41:58;151.60;;;89.10;;
32038;SDS011;18549;42.286;22.688;2023-12-14T11:44:26;181.33;;;109.40;;
32038;SDS011;18549;42.286;22.688;2023-12-14T11:46:54;162.93;;;104.80;;
32038;SDS011;18549;42.286;22.688;2023-12-14T11:49:23;123.67;;;76.73;;
32038;SDS011;18549;42.286;22.688;2023-12-14T11:51:51;133.83;;;80.93;;
32038;SDS011;18549;42.286;22.688;2023-12-14T11:54:19;140.80;;;89.97;;
32038;SDS011;18549;42.286;22.688;2023-12-14T11:56:46;149.17;;;87.93;;
32038;SDS011;18549;42.286;22.688;2023-12-14T11:59:14;147.60;;;91.20;;
32038;SDS011;18549;42.286;22.688;2023-12-14T12:01:54;139.83;;;88.63;;
32038;SDS011;18549;42.286;22.688;2023-12-14T12:04:23;154.20;;;89.77;;
32038;SDS011;18549;42.286;22.688;2023-12-14T12:06:58;134.80;;;87.57;;
32038;SDS011;18549;42.286;22.688;2023-12-14T12:12:11;135.17;;;83.03;;
32038;SDS011;18549;42.286;22.688;2023-12-14T12:14:39;118.93;;;74.00;;
32038;SDS011;18549;42.286;22.688;2023-12-14T12:17:08;112.93;;;77.07;;
32038;SDS011;18549;42.286;22.688;2023-12-14T12:19:36;131.77;;;78.93;;
32038;SDS011;18549;42.286;22.688;2023-12-14T12:22:03;120.50;;;83.50;;
32038;SDS011;18549;42.286;22.688;2023-12-14T12:24:30;126.37;;;84.63;;
32038;SDS011;18549;42.286;22.688;2023-12-14T12:26:59;133.07;;;84.03;;
32038;SDS011;18549;42.286;22.688;2023-12-14T12:29:26;136.60;;;85.47;;
32038;SDS011;18549;42.286;22.688;2023-12-14T12:31:53;137.90;;;84.17;;
32038;SDS011;18549;42.286;22.688;2023-12-14T12:34:26;135.37;;;86.03;;
32038;SDS011;18549;42.286;22.688;2023-12-14T12:36:57;125.20;;;83.77;;
32038;SDS011;18549;42.286;22.688;2023-12-14T12:39:24;130.93;;;88.17;;
32038;SDS011;18549;42.286;22.688;2023-12-14T12:41:54;144.90;;;88.10;;
32038;SDS011;18549;42.286;22.688;2023-12-14T12:44:21;140.30;;;87.60;;
32038;SDS011;18549;42.286;22.688;2023-12-14T12:46:48;128.77;;;85.23;;
32038;SDS011;18549;42.286;22.688;2023-12-14T12:49:15;129.57;;;83.03;;
32038;SDS011;18549;42.286;22.688;2023-12-14T12:51:43;138.30;;;84.20;;
32038;SDS011;18549;42.286;22.688;2023-12-14T12:54:11;127.97;;;81.67;;
32038;SDS011;18549;42.286;22.688;2023-12-14T12:56:38;127.90;;;79.17;;
32038;SDS011;18549;42.286;22.688;2023-12-14T12:59:05;114.47;;;73.13;;
32038;SDS011;18549;42.286;22.688;2023-12-14T13:01:31;128.83;;;76.10;;
32038;SDS011;18549;42.286;22.688;2023-12-14T13:03:58;114.17;;;73.60;;
32038;SDS011;18549;42.286;22.688;2023-12-14T13:06:26;121.40;;;73.00;;
32038;SDS011;18549;42.286;22.688;2023-12-14T13:08:54;112.73;;;75.10;;
32038;SDS011;18549;42.286;22.688;2023-12-14T13:11:21;125.63;;;72.77;;
32038;SDS011;18549;42.286;22.688;2023-12-14T13:13:50;139.80;;;77.50;;
32038;SDS011;18549;42.286;22.688;2023-12-14T13:16:17;136.67;;;81.73;;
32038;SDS011;18549;42.286;22.688;2023-12-14T13:18:44;126.00;;;74.23;;
32038;SDS011;18549;42.286;22.688;2023-12-14T13:21:11;152.77;;;86.90;;
32038;SDS011;18549;42.286;22.688;2023-12-14T13:23:38;138.43;;;82.93;;
32038;SDS011;18549;42.286;22.688;2023-12-14T13:26:07;123.53;;;67.77;;
32038;SDS011;18549;42.286;22.688;2023-12-14T13:28:34;99.87;;;62.17;;
32038;SDS011;18549;42.286;22.688;2023-12-14T13:31:01;78.90;;;51.50;;
32038;SDS011;18549;42.286;22.688;2023-12-14T13:33:28;78.83;;;43.40;;
32038;SDS011;18549;42.286;22.688;2023-12-14T13:35:55;45.20;;;23.07;;
32038;SDS011;18549;42.286;22.688;2023-12-14T13:38:21;22.90;;;15.57;;
32038;SDS011;18549;42.286;22.688;2023-12-14T13:40:48;20.57;;;13.40;;
32038;SDS011;18549;42.286;22.688;2023-12-14T13:43:16;14.80;;;9.83;;
32038;SDS011;18549;42.286;22.688;2023-12-14T13:45:44;14.63;;;9.43;;
32038;SDS011;18549;42.286;22.688;2023-12-14T13:48:11;21.07;;;11.23;;
32038;SDS011;18549;42.286;22.688;2023-12-14T13:50:38;14.23;;;9.47;;
32038;SDS011;18549;42.286;22.688;2023-12-14T13:53:05;17.17;;;11.10;;
32038;SDS011;18549;42.286;22.688;2023-12-14T13:55:32;32.43;;;19.23;;
32038;SDS011;18549;42.286;22.688;2023-12-14T13:58:00;28.03;;;17.83;;
32038;SDS011;18549;42.286;22.688;2023-12-14T14:00:29;25.53;;;13.47;;
32038;SDS011;18549;42.286;22.688;2023-12-14T14:02:56;34.33;;;19.97;;
32038;SDS011;18549;42.286;22.688;2023-12-14T14:05:23;29.23;;;18.23;;
32038;SDS011;18549;42.286;22.688;2023-12-14T14:07:50;31.53;;;19.03;;
32038;SDS011;18549;42.286;22.688;2023-12-14T14:10:17;19.97;;;10.60;;
32038;SDS011;18549;42.286;22.688;2023-12-14T14:12:44;12.23;;;8.80;;
32038;SDS011;18549;42.286;22.688;2023-12-14T14:15:11;16.90;;;11.87;;
32038;SDS011;18549;42.286;22.688;2023-12-14T14:17:40;22.60;;;13.40;;
32038;SDS011;18549;42.286;22.688;2023-12-14T14:20:07;38.20;;;22.47;;